createdAt,value
2018-08-06T00:00:50.091Z,3.33
2018-08-06T00:03:18.475Z,3.00
2018-08-06T00:05:46.883Z,3.20
2018-08-06T00:08:15.211Z,3.43
2018-08-06T00:10:43.626Z,2.93
2018-08-06T00:13:11.978Z,3.43
2018-08-06T00:15:40.369Z,3.23
2018-08-06T00:18:08.684Z,3.17
2018-08-06T00:20:37.012Z,3.10
2018-08-06T00:23:05.409Z,3.37
2018-08-06T00:25:33.727Z,3.20
2018-08-06T00:28:02.079Z,3.10
2018-08-06T00:30:30.426Z,3.37
2018-08-06T00:32:58.823Z,3.40
2018-08-06T00:35:27.218Z,3.00
2018-08-06T00:37:55.550Z,2.97
2018-08-06T00:40:23.861Z,3.10
2018-08-06T00:42:52.189Z,3.13
2018-08-06T00:45:21.502Z,2.83
2018-08-06T00:47:50.087Z,2.40
2018-08-06T00:50:18.400Z,2.90
2018-08-06T00:52:46.772Z,2.67
2018-08-06T00:55:16.764Z,3.00
2018-08-06T00:57:45.173Z,2.53
2018-08-06T01:00:15.159Z,2.83
2018-08-06T01:02:43.575Z,2.73
2018-08-06T01:05:13.895Z,2.50
2018-08-06T01:07:42.845Z,2.53
2018-08-06T01:10:13.585Z,2.30
2018-08-06T01:12:42.003Z,2.60
2018-08-06T01:15:12.563Z,2.90
2018-08-06T01:17:41.105Z,2.43
2018-08-06T01:20:11.213Z,2.50
2018-08-06T01:22:39.755Z,2.50
2018-08-06T01:25:08.183Z,2.70
2018-08-06T01:27:37.115Z,2.40
2018-08-06T01:30:06.889Z,2.77
2018-08-06T01:32:35.540Z,2.60
2018-08-06T01:35:04.052Z,2.50
2018-08-06T01:37:32.454Z,2.50
2018-08-06T01:40:00.793Z,3.30
2018-08-06T01:42:29.153Z,2.50
2018-08-06T01:44:57.469Z,2.50
2018-08-06T01:47:25.792Z,2.20
2018-08-06T01:49:54.133Z,2.60
2018-08-06T01:52:22.530Z,2.50
2018-08-06T01:54:51.718Z,2.73
2018-08-06T01:57:20.112Z,2.40
2018-08-06T01:59:48.519Z,2.60
2018-08-06T02:02:16.895Z,2.13
2018-08-06T02:04:45.546Z,2.50
2018-08-06T02:07:13.931Z,2.20
2018-08-06T02:09:42.603Z,2.67
2018-08-06T02:12:10.945Z,2.43
2018-08-06T02:14:39.296Z,2.80
2018-08-06T02:17:07.689Z,1.93
2018-08-06T02:19:36.029Z,2.80
2018-08-06T02:22:04.429Z,2.70
2018-08-06T02:24:32.794Z,2.50
2018-08-06T02:27:01.184Z,2.70
2018-08-06T02:29:29.631Z,2.13
2018-08-06T02:31:58.406Z,2.50
2018-08-06T02:34:27.368Z,2.40
2018-08-06T02:36:56.414Z,2.50
2018-08-06T02:39:25.243Z,2.60
2018-08-06T02:41:54.381Z,2.27
2018-08-06T02:44:23.089Z,2.27
2018-08-06T02:46:51.414Z,2.60
2018-08-06T02:49:19.854Z,2.40
2018-08-06T02:51:48.192Z,2.13
2018-08-06T02:54:16.472Z,2.33
2018-08-06T02:56:45.539Z,2.33
2018-08-06T02:59:14.030Z,2.63
2018-08-06T03:01:42.420Z,2.60
2018-08-06T03:04:10.793Z,2.63
2018-08-06T03:06:39.139Z,2.23
2018-08-06T03:09:10.365Z,2.53
2018-08-06T03:11:38.762Z,2.73
2018-08-06T03:14:07.142Z,2.60
2018-08-06T03:16:35.530Z,2.57
2018-08-06T03:19:03.967Z,2.87
2018-08-06T03:21:32.272Z,2.83
2018-08-06T03:24:00.637Z,2.87
2018-08-06T03:26:28.991Z,3.47
2018-08-06T03:28:57.311Z,2.60
2018-08-06T03:31:25.625Z,2.73
2018-08-06T03:33:53.996Z,3.07
2018-08-06T03:36:22.048Z,2.90
2018-08-06T03:38:50.370Z,3.03
2018-08-06T03:41:18.761Z,3.00
2018-08-06T03:43:47.178Z,2.80
2018-08-06T03:46:15.508Z,2.77
2018-08-06T03:48:43.949Z,2.80
2018-08-06T03:51:12.328Z,3.40
2018-08-06T03:53:40.708Z,3.30
2018-08-06T03:56:09.062Z,2.80
2018-08-06T03:58:37.395Z,3.23
2018-08-06T04:01:05.785Z,2.80
2018-08-06T04:03:34.156Z,3.37
2018-08-06T04:06:02.501Z,2.97
2018-08-06T04:08:30.836Z,3.70
2018-08-06T04:10:59.145Z,3.47
2018-08-06T04:13:27.489Z,2.90
2018-08-06T04:15:55.800Z,3.33
2018-08-06T04:18:24.115Z,3.10
2018-08-06T04:20:52.413Z,3.77
2018-08-06T04:23:20.699Z,3.87
2018-08-06T04:25:49.006Z,3.47
2018-08-06T04:28:17.332Z,3.47
2018-08-06T04:30:45.698Z,3.23
2018-08-06T04:33:14.073Z,3.67
2018-08-06T04:35:42.474Z,3.43
2018-08-06T04:38:10.795Z,4.13
2018-08-06T04:40:39.119Z,3.70
2018-08-06T04:43:07.474Z,3.57
2018-08-06T04:45:35.819Z,3.33
2018-08-06T04:48:04.140Z,3.47
2018-08-06T04:50:32.452Z,3.60
2018-08-06T04:53:00.894Z,3.67
2018-08-06T04:55:29.235Z,3.80
2018-08-06T04:57:57.611Z,3.70
2018-08-06T05:00:26.015Z,3.90
2018-08-06T05:02:54.341Z,4.33
2018-08-06T05:05:22.680Z,4.10
2018-08-06T05:07:51.024Z,4.00
2018-08-06T05:11:48.625Z,4.10
2018-08-06T05:14:16.939Z,4.20
2018-08-06T05:16:45.252Z,4.00
2018-08-06T05:19:13.598Z,4.03
2018-08-06T05:21:41.915Z,4.63
2018-08-06T05:24:10.260Z,4.40
2018-08-06T05:26:38.588Z,4.43
2018-08-06T05:29:06.936Z,4.60
2018-08-06T05:31:35.350Z,4.30
2018-08-06T05:34:03.701Z,4.23
2018-08-06T05:36:32.088Z,4.50
2018-08-06T05:39:00.427Z,4.67
2018-08-06T05:41:28.791Z,4.97
2018-08-06T05:43:57.998Z,4.93
2018-08-06T05:46:26.377Z,5.10
2018-08-06T05:48:55.025Z,5.17
2018-08-06T05:51:23.348Z,5.00
2018-08-06T05:53:51.676Z,4.90
2018-08-06T05:56:19.983Z,5.07
2018-08-06T05:58:48.303Z,5.70
2018-08-06T06:01:16.725Z,5.47
2018-08-06T06:03:45.108Z,5.20
2018-08-06T06:06:13.459Z,5.60
2018-08-06T06:08:41.787Z,5.90
2018-08-06T06:11:10.204Z,5.70
2018-08-06T06:13:38.539Z,6.40
2018-08-06T06:16:07.948Z,6.00
2018-08-06T06:18:36.439Z,5.33
2018-08-06T06:21:04.768Z,5.90
2018-08-06T06:23:33.105Z,5.70
2018-08-06T06:26:01.502Z,6.17
2018-08-06T06:28:29.990Z,6.67
2018-08-06T06:30:58.313Z,6.50
2018-08-06T06:33:26.356Z,6.33
2018-08-06T06:35:54.939Z,6.30
2018-08-06T06:38:23.300Z,6.23
2018-08-06T06:40:51.609Z,6.13
2018-08-06T06:43:19.967Z,5.97
2018-08-06T06:45:48.383Z,6.07
2018-08-06T06:48:16.760Z,5.80
2018-08-06T06:50:45.141Z,6.33
2018-08-06T06:53:13.526Z,6.23
2018-08-06T06:55:41.877Z,5.80
2018-08-06T06:58:10.266Z,6.47
2018-08-06T07:00:38.568Z,5.67
2018-08-06T07:03:07.127Z,6.60
2018-08-06T07:05:35.515Z,5.33
2018-08-06T07:08:04.000Z,5.60
2018-08-06T07:10:32.451Z,5.50
2018-08-06T07:13:00.512Z,5.83
2018-08-06T07:15:28.920Z,5.20
2018-08-06T07:17:57.327Z,5.37
2018-08-06T07:20:25.862Z,4.80
2018-08-06T07:22:54.168Z,5.90
2018-08-06T07:25:22.280Z,5.13
2018-08-06T07:27:50.645Z,5.53
2018-08-06T07:30:18.956Z,5.73
2018-08-06T07:32:47.355Z,4.73
2018-08-06T07:35:15.872Z,5.53
2018-08-06T07:37:43.998Z,4.73
2018-08-06T07:40:13.634Z,4.70
2018-08-06T07:42:42.146Z,4.40
2018-08-06T07:45:16.121Z,4.80
2018-08-06T07:47:45.071Z,4.20
2018-08-06T07:50:15.247Z,4.80
2018-08-06T07:52:43.826Z,3.87
2018-08-06T07:55:12.227Z,3.70
2018-08-06T07:57:40.912Z,4.43
2018-08-06T08:00:11.480Z,3.77
2018-08-06T08:02:39.878Z,3.90
2018-08-06T08:05:10.558Z,3.63
2018-08-06T08:07:39.091Z,3.97
2018-08-06T08:10:13.197Z,3.50
2018-08-06T08:12:41.625Z,3.50
2018-08-06T08:15:15.366Z,3.20
2018-08-06T08:17:44.884Z,3.70
2018-08-06T08:20:14.594Z,3.67
2018-08-06T08:22:43.379Z,3.63
2018-08-06T08:25:13.396Z,3.90
2018-08-06T08:27:41.770Z,4.00
2018-08-06T08:30:11.850Z,3.93
2018-08-06T08:32:40.221Z,3.77
2018-08-06T08:35:09.043Z,4.00
2018-08-06T08:37:37.437Z,4.13
2018-08-06T08:40:09.857Z,3.30
2018-08-06T08:42:38.168Z,3.10
2018-08-06T08:45:08.833Z,4.10
2018-08-06T08:47:37.227Z,3.60
2018-08-06T08:50:06.737Z,3.10
2018-08-06T08:52:35.155Z,3.30
2018-08-06T08:55:03.693Z,4.00
2018-08-06T08:57:32.150Z,2.67
2018-08-06T09:00:00.561Z,3.20
2018-08-06T09:02:28.891Z,3.67
2018-08-06T09:04:57.452Z,2.73
2018-08-06T09:07:25.946Z,3.33
2018-08-06T09:09:54.494Z,3.13
2018-08-06T09:12:22.853Z,2.97
2018-08-06T09:14:51.235Z,3.10
2018-08-06T09:17:19.615Z,2.60
2018-08-06T09:19:48.021Z,2.67
2018-08-06T09:22:16.404Z,2.37
2018-08-06T09:24:44.787Z,2.63
2018-08-06T09:27:13.189Z,2.67
2018-08-06T09:29:41.619Z,2.57
2018-08-06T09:32:10.049Z,2.73
2018-08-06T09:34:38.433Z,2.50
2018-08-06T09:37:06.869Z,2.50
2018-08-06T09:39:35.230Z,3.13
2018-08-06T09:42:03.800Z,2.10
2018-08-06T09:44:32.144Z,2.90
2018-08-06T09:47:00.557Z,3.00
2018-08-06T09:49:28.924Z,2.30
2018-08-06T09:51:57.296Z,3.70
2018-08-06T09:54:25.691Z,2.57
2018-08-06T09:56:54.084Z,3.00
2018-08-06T09:59:22.475Z,2.90
2018-08-06T10:01:58.234Z,2.53
2018-08-06T10:04:27.321Z,2.30
2018-08-06T10:06:55.909Z,2.97
2018-08-06T10:09:24.336Z,3.60
2018-08-06T10:11:52.750Z,2.37
2018-08-06T10:14:21.119Z,2.87
2018-08-06T10:16:49.477Z,2.43
2018-08-06T10:26:05.384Z,2.87
2018-08-06T10:28:33.773Z,2.33
2018-08-06T10:31:02.152Z,2.47
2018-08-06T10:33:30.554Z,2.27
2018-08-06T10:35:58.980Z,2.37
2018-08-06T10:38:27.044Z,2.90
2018-08-06T10:40:55.471Z,2.50
2018-08-06T10:43:23.859Z,2.67
2018-08-06T10:45:52.279Z,2.33
2018-08-06T10:48:20.814Z,2.17
2018-08-06T10:50:48.890Z,2.20
2018-08-06T10:53:17.331Z,2.73
2018-08-06T10:55:45.862Z,2.10
2018-08-06T10:58:14.303Z,2.57
2018-08-06T11:00:42.861Z,3.00
2018-08-06T11:03:11.681Z,2.87
2018-08-06T11:05:40.045Z,2.40
2018-08-06T11:08:08.575Z,2.23
2018-08-06T11:10:36.959Z,2.63
2018-08-06T11:13:05.928Z,2.70
2018-08-06T11:15:36.061Z,2.80
2018-08-06T11:18:04.233Z,2.63
2018-08-06T11:20:32.737Z,2.20
2018-08-06T11:23:01.246Z,2.60
2018-08-06T11:25:29.666Z,2.70
2018-08-06T11:27:58.046Z,2.40
2018-08-06T11:30:26.455Z,2.53
2018-08-06T11:32:55.041Z,2.70
2018-08-06T11:35:23.709Z,3.20
2018-08-06T11:37:52.526Z,3.17
2018-08-06T11:40:20.969Z,3.30
2018-08-06T11:42:49.371Z,2.70
2018-08-06T11:45:19.127Z,3.37
2018-08-06T11:47:47.275Z,2.90
2018-08-06T11:50:15.657Z,2.80
2018-08-06T11:52:44.160Z,2.90
2018-08-06T11:55:12.541Z,3.40
2018-08-06T11:57:41.004Z,2.60
2018-08-06T12:00:15.357Z,3.10
2018-08-06T12:02:43.876Z,3.20
2018-08-06T12:05:12.415Z,3.00
2018-08-06T12:07:41.019Z,2.93
2018-08-06T12:10:11.607Z,2.70
2018-08-06T12:12:40.153Z,2.87
2018-08-06T12:15:09.545Z,2.83
2018-08-06T12:17:38.513Z,2.57
2018-08-06T12:20:09.475Z,2.80
2018-08-06T12:22:38.167Z,2.80
2018-08-06T12:25:07.955Z,2.97
2018-08-06T12:27:36.394Z,3.08
2018-08-06T12:30:07.118Z,4.07
2018-08-06T12:32:35.548Z,3.17
2018-08-06T12:35:04.197Z,3.10
2018-08-06T12:37:32.604Z,2.90
2018-08-06T12:40:02.319Z,2.80
2018-08-06T12:42:31.752Z,3.20
2018-08-06T12:45:00.144Z,3.40
2018-08-06T12:47:28.497Z,3.30
2018-08-06T12:49:57.137Z,2.93
2018-08-06T12:52:25.874Z,3.20
2018-08-06T12:54:54.250Z,2.90
2018-08-06T12:57:22.707Z,3.20
2018-08-06T12:59:50.811Z,3.20
2018-08-06T13:02:19.231Z,3.27
2018-08-06T13:04:47.684Z,3.33
2018-08-06T13:07:16.237Z,2.83
2018-08-06T13:09:44.666Z,3.73
2018-08-06T13:12:13.121Z,3.07
2018-08-06T13:14:41.502Z,3.15
2018-08-06T13:17:09.939Z,3.17
2018-08-06T13:19:38.339Z,2.97
2018-08-06T13:22:06.694Z,3.00
2018-08-06T13:24:35.581Z,3.03
2018-08-06T13:27:04.008Z,3.13
2018-08-06T13:29:32.411Z,3.50
2018-08-06T13:32:00.936Z,3.37
2018-08-06T13:34:29.300Z,3.27
2018-08-06T13:36:57.745Z,3.27
2018-08-06T13:39:26.133Z,3.40
2018-08-06T13:41:54.191Z,3.37
2018-08-06T13:44:22.324Z,3.27
2018-08-06T13:46:50.915Z,3.53
2018-08-06T13:49:19.240Z,3.23
2018-08-06T13:51:47.628Z,3.20
2018-08-06T13:54:16.416Z,3.57
2018-08-06T13:56:44.882Z,2.90
2018-08-06T13:59:13.409Z,3.17
2018-08-06T14:01:41.865Z,3.17
2018-08-06T14:04:10.327Z,3.37
2018-08-06T14:06:38.653Z,3.30
2018-08-06T14:09:08.739Z,3.43
2018-08-06T14:11:37.327Z,3.17
2018-08-06T14:14:05.731Z,3.50
2018-08-06T14:16:34.249Z,3.37
2018-08-06T14:19:03.108Z,3.50
2018-08-06T14:21:31.476Z,3.40
2018-08-06T14:23:59.879Z,3.47
2018-08-06T14:26:28.242Z,3.47
2018-08-06T14:28:56.843Z,3.67
2018-08-06T14:31:25.240Z,3.20
2018-08-06T14:33:53.805Z,3.40
2018-08-06T14:36:22.265Z,3.30
2018-08-06T14:38:50.628Z,3.20
2018-08-06T14:41:19.101Z,3.03
2018-08-06T14:43:47.492Z,3.40
2018-08-06T14:46:15.876Z,3.13
2018-08-06T14:48:44.236Z,3.20
2018-08-06T14:51:12.687Z,3.10
2018-08-06T14:53:41.108Z,3.50
2018-08-06T14:56:09.507Z,3.30
2018-08-06T14:58:37.893Z,3.17
2018-08-06T15:01:06.496Z,3.30
2018-08-06T15:03:34.978Z,3.10
2018-08-06T15:06:03.358Z,3.33
2018-08-06T15:08:31.722Z,3.33
2018-08-06T15:11:00.118Z,3.43
2018-08-06T15:13:28.575Z,4.00
2018-08-06T15:15:56.952Z,3.60
2018-08-06T15:18:25.522Z,3.53
2018-08-06T15:20:53.903Z,3.37
2018-08-06T15:23:22.694Z,3.33
2018-08-06T15:25:51.063Z,3.70
2018-08-06T15:28:19.491Z,3.57
2018-08-06T15:30:47.926Z,3.43
2018-08-06T15:33:16.321Z,3.27
2018-08-06T15:35:45.355Z,3.50
2018-08-06T15:38:13.476Z,2.93
2018-08-06T15:40:41.866Z,2.73
2018-08-06T15:43:10.276Z,2.90
2018-08-06T15:45:38.713Z,3.00
2018-08-06T15:48:07.146Z,3.23
2018-08-06T15:50:35.563Z,3.00
2018-08-06T15:53:03.945Z,3.30
2018-08-06T15:55:32.289Z,3.10
2018-08-06T15:58:00.764Z,3.83
2018-08-06T16:00:29.138Z,3.13
2018-08-06T16:02:57.602Z,3.00
2018-08-06T16:05:25.989Z,3.30
2018-08-06T16:07:54.689Z,3.43
2018-08-06T16:10:23.089Z,3.00
2018-08-06T16:12:51.426Z,2.87
2018-08-06T16:15:19.814Z,3.20
2018-08-06T16:17:48.152Z,3.00
2018-08-06T16:20:17.846Z,2.90
2018-08-06T16:22:46.333Z,3.10
2018-08-06T16:25:14.881Z,3.40
2018-08-06T16:27:43.269Z,3.10
2018-08-06T16:30:21.456Z,3.60
2018-08-06T16:32:50.100Z,3.00
2018-08-06T16:35:20.085Z,3.27
2018-08-06T16:37:49.478Z,3.03
2018-08-06T16:40:17.838Z,2.97
2018-08-06T16:42:46.337Z,2.93
2018-08-06T16:45:14.726Z,3.47
2018-08-06T16:47:43.173Z,3.27
2018-08-06T16:50:14.157Z,3.17
2018-08-06T16:52:42.789Z,3.70
2018-08-06T16:55:11.293Z,3.30
2018-08-06T16:57:39.841Z,3.17
2018-08-06T17:00:11.194Z,3.10
2018-08-06T17:02:39.672Z,3.27
2018-08-06T17:05:10.124Z,3.17
2018-08-06T17:07:38.571Z,3.30
2018-08-06T17:10:09.513Z,3.30
2018-08-06T17:12:38.583Z,3.80
2018-08-06T17:15:09.293Z,3.10
2018-08-06T17:17:37.755Z,3.33
2018-08-06T17:20:10.251Z,3.37
2018-08-06T17:22:38.656Z,3.30
2018-08-06T17:25:07.421Z,3.30
2018-08-06T17:27:35.869Z,3.43
2018-08-06T17:30:05.084Z,3.30
2018-08-06T17:32:33.441Z,3.47
2018-08-06T17:35:02.133Z,3.17
2018-08-06T17:37:30.576Z,2.77
2018-08-06T17:39:58.958Z,3.00
2018-08-06T17:42:27.077Z,3.20
2018-08-06T17:44:55.735Z,2.80
2018-08-06T17:47:24.179Z,3.20
2018-08-06T17:49:52.633Z,3.07
2018-08-06T17:52:21.011Z,2.97
2018-08-06T17:54:49.413Z,2.90
2018-08-06T17:57:18.079Z,2.87
2018-08-06T17:59:46.570Z,3.23
2018-08-06T18:02:15.016Z,3.30
2018-08-06T18:04:43.443Z,3.27
2018-08-06T18:07:11.872Z,2.90
2018-08-06T18:09:40.936Z,3.40
2018-08-06T18:12:09.425Z,3.30
2018-08-06T18:14:37.968Z,3.47
2018-08-06T18:17:06.504Z,3.30
2018-08-06T18:19:35.109Z,3.40
2018-08-06T18:22:03.617Z,3.17
2018-08-06T18:24:32.001Z,3.70
2018-08-06T18:27:00.413Z,3.17
2018-08-06T18:29:28.859Z,3.30
2018-08-06T18:31:57.460Z,3.10
2018-08-06T18:34:26.050Z,3.17
2018-08-06T18:36:54.334Z,3.43
2018-08-06T18:39:23.216Z,2.87
2018-08-06T18:41:51.981Z,3.30
2018-08-06T18:44:20.422Z,3.10
2018-08-06T18:46:48.780Z,3.40
2018-08-06T18:49:17.156Z,3.60
2018-08-06T18:51:45.919Z,3.20
2018-08-06T18:54:14.302Z,3.10
2018-08-06T18:56:42.792Z,3.30
2018-08-06T18:59:11.795Z,3.30
2018-08-06T19:01:40.212Z,3.20
2018-08-06T19:04:09.274Z,3.20
2018-08-06T19:06:38.205Z,3.50
2018-08-06T19:09:13.600Z,3.30
2018-08-06T19:11:42.788Z,3.20
2018-08-06T19:14:16.776Z,3.53
2018-08-06T19:16:46.025Z,3.30
2018-08-06T19:19:20.180Z,3.07
2018-08-06T19:21:49.403Z,3.53
2018-08-06T19:24:23.209Z,3.33
2018-08-06T19:26:51.711Z,3.43
2018-08-06T19:29:20.173Z,3.43
2018-08-06T19:31:48.623Z,3.70
2018-08-06T19:34:17.034Z,3.13
2018-08-06T19:36:51.081Z,3.70
2018-08-06T19:39:19.443Z,3.03
2018-08-06T19:41:47.978Z,3.13
2018-08-06T19:57:15.826Z,3.17
2018-08-06T19:59:44.665Z,3.50
2018-08-06T20:02:13.116Z,3.53
2018-08-06T20:04:41.464Z,3.80
2018-08-06T20:07:09.845Z,3.70
2018-08-06T20:09:38.222Z,4.10
2018-08-06T20:12:06.575Z,4.10
2018-08-06T20:14:34.683Z,3.47
2018-08-06T20:17:03.034Z,3.57
2018-08-06T20:19:31.403Z,4.07
2018-08-06T20:21:59.827Z,3.77
2018-08-06T20:24:28.235Z,3.53
2018-08-06T20:26:56.671Z,3.80
2018-08-06T20:29:24.766Z,3.70
2018-08-06T20:31:53.164Z,4.13
2018-08-06T20:34:21.544Z,4.17
2018-08-06T20:36:49.895Z,4.53
2018-08-06T20:39:18.329Z,4.23
2018-08-06T20:41:46.715Z,3.70
2018-08-06T20:44:15.087Z,3.97
2018-08-06T20:46:43.456Z,3.80
2018-08-06T20:49:11.841Z,4.27
2018-08-06T20:51:40.256Z,3.83
2018-08-06T20:54:08.605Z,4.07
2018-08-06T20:56:37.632Z,3.60
2018-08-06T20:59:06.055Z,3.97
2018-08-06T21:01:34.415Z,4.10
2018-08-06T21:04:03.328Z,3.77
2018-08-06T21:06:31.750Z,3.53
2018-08-06T21:09:00.335Z,3.53
2018-08-06T21:11:28.713Z,4.10
2018-08-06T21:13:57.064Z,4.00
2018-08-06T21:16:25.461Z,4.20
2018-08-06T21:18:53.956Z,3.90
2018-08-06T21:21:22.343Z,4.20
2018-08-06T21:23:50.698Z,4.20
2018-08-06T21:26:19.057Z,4.30
2018-08-06T21:28:47.433Z,4.27
2018-08-06T21:31:15.808Z,4.03
2018-08-06T21:33:44.147Z,4.43
2018-08-06T21:36:12.507Z,4.13
2018-08-06T21:38:40.927Z,4.13
2018-08-06T21:41:09.337Z,4.27
2018-08-06T21:43:37.738Z,4.43
2018-08-06T21:46:06.076Z,4.33
2018-08-06T21:48:34.450Z,4.03
2018-08-06T21:51:03.124Z,4.30
2018-08-06T21:53:31.546Z,3.80
2018-08-06T21:55:59.902Z,4.40
2018-08-06T21:58:28.347Z,4.30
2018-08-06T22:00:56.721Z,4.30
2018-08-06T22:03:25.125Z,3.50
2018-08-06T22:05:53.855Z,3.73
2018-08-06T22:08:22.216Z,3.57
2018-08-06T22:10:50.542Z,3.40
2018-08-06T22:13:18.868Z,3.47
2018-08-06T22:15:47.228Z,3.53
2018-08-06T22:18:15.886Z,3.97
2018-08-06T22:20:44.300Z,3.60
2018-08-06T22:23:12.681Z,3.73
2018-08-06T22:25:41.016Z,3.90
2018-08-06T22:28:11.137Z,3.90
2018-08-06T22:30:39.545Z,4.03
2018-08-06T22:33:07.947Z,3.93
2018-08-06T22:35:36.297Z,3.73
2018-08-06T22:38:04.700Z,3.60
2018-08-06T22:40:33.089Z,4.00
2018-08-06T22:43:01.482Z,4.20
2018-08-06T22:45:29.863Z,3.80
2018-08-06T22:47:58.220Z,4.30
2018-08-06T22:50:26.650Z,3.70
2018-08-06T22:52:55.061Z,4.00
2018-08-06T22:55:23.498Z,3.80
2018-08-06T22:57:51.863Z,4.57
2018-08-06T23:00:20.343Z,4.43
2018-08-06T23:02:48.701Z,3.77
2018-08-06T23:05:17.313Z,4.33
2018-08-06T23:07:45.758Z,4.20
2018-08-06T23:10:16.626Z,3.50
2018-08-06T23:12:45.917Z,4.27
2018-08-06T23:15:15.458Z,4.63
2018-08-06T23:17:44.512Z,4.97
2018-08-06T23:20:12.560Z,5.83
2018-08-06T23:22:40.933Z,5.17
2018-08-06T23:25:09.345Z,4.73
2018-08-06T23:27:38.501Z,4.93
2018-08-06T23:30:09.186Z,4.93
2018-08-06T23:32:37.517Z,4.97
2018-08-06T23:35:07.264Z,5.10
2018-08-06T23:37:35.616Z,5.33
2018-08-06T23:40:04.322Z,4.83
2018-08-06T23:42:32.720Z,5.17
2018-08-06T23:45:01.451Z,5.43
2018-08-06T23:47:29.815Z,5.53
2018-08-06T23:49:58.183Z,4.77
2018-08-06T23:52:26.577Z,5.03
2018-08-06T23:54:54.669Z,6.03
2018-08-06T23:57:23.038Z,6.33
2018-08-06T23:59:51.436Z,6.30
